Stations météo

Publicité
Chateau Chinon, France (7270): Température de l'air & dewpoint: 13.04.2019 02:00:00 - 19.04.2019 02:00:00 (CEST)Chateau Chinon, France (7270): Vitesse du vent & gusts: 13.04.2019 02:00:00 - 19.04.2019 02:00:00 (CEST)Chateau Chinon, France (7270): Direction du vent: 13.04.2019 02:00:00 - 19.04.2019 02:00:00 (CEST)Chateau Chinon, France (7270): Quantités de précipitations: 13.04.2019 02:00:00 - 19.04.2019 02:00:00 (CEST)
Date & Time tt [°C] td [°C] ff [km/h] ff [knt] fx [km/h] fx [knt] dd rr [mm]
19.04.2019 02:00:00 13,4 1,4 5 3 28 15 SSE -
19.04.2019 01:00:00 13,4 2,9 8 4 22 12 SE 0,0
19.04.2019 00:00:00 13,4 6,0 8 4 24 13 ESE 0,0
18.04.2019 23:00:00 13,4 6,9 5 3 26 14 ESE 0,0
18.04.2019 22:00:00 13,9 7,4 8 4 21 11 E 0,0
18.04.2019 21:00:00 14,4 7,0 8 4 22 12 E 0,0
18.04.2019 20:00:00 15,9 5,5 5 3 15 8 E -
18.04.2019 19:00:00 17,8 5,7 4 2 18 10 E 0,0
18.04.2019 18:00:00 19,6 6,7 4 2 24 13 E 0,0
18.04.2019 17:00:00 20,4 7,0 4 2 26 14 ESE 0,0
18.04.2019 16:00:00 20,4 6,0 5 3 26 14 E 0,0
18.04.2019 15:00:00 20,7 7,3 5 3 31 17 E 0,0
18.04.2019 14:00:00 20,1 5,7 5 3 31 17 E -
18.04.2019 13:00:00 19,8 6,5 8 4 39 21 ESE 0,0
18.04.2019 12:00:00 18,4 4,5 11 6 39 21 ESE 0,0
18.04.2019 11:00:00 17,7 3,9 8 4 34 18 E 0,0
18.04.2019 10:00:00 15,9 3,7 13 7 44 24 ESE 0,0
18.04.2019 09:00:00 13,6 3,4 8 4 28 15 ESE 0,0
18.04.2019 08:00:00 9,8 3,1 8 4 24 13 ESE -
18.04.2019 07:00:00 8,7 4,1 8 4 26 14 ESE 0,0
18.04.2019 06:00:00 8,9 5,6 8 4 22 12 E 0,0
18.04.2019 05:00:00 9,4 6,1 8 4 21 11 E 0,0
18.04.2019 04:00:00 10,3 6,3 5 3 24 13 ESE 0,0
18.04.2019 03:00:00 10,8 6,3 5 3 26 14 ESE 0,0
18.04.2019 02:00:00 11,7 6,4 9 5 31 17 ESE -
18.04.2019 01:00:00 11,1 6,2 9 5 24 13 E 0,0
18.04.2019 00:00:00 11,3 6,2 8 4 28 15 E 0,0
17.04.2019 23:00:00 11,4 6,3 9 5 26 14 E 0,0
17.04.2019 22:00:00 11,3 6,8 8 4 22 12 E 0,0
17.04.2019 21:00:00 11,6 6,9 8 4 24 13 E 0,0
17.04.2019 20:00:00 12,9 7,1 4 2 18 10 E -
17.04.2019 19:00:00 15,8 7,3 4 2 13 7 E 0,0
17.04.2019 18:00:00 16,8 6,3 4 2 18 10 E 0,0
17.04.2019 17:00:00 17,4 7,7 5 3 24 13 E 0,0
17.04.2019 16:00:00 17,5 7,2 4 2 16 9 ESE 0,0
17.04.2019 15:00:00 17,1 5,4 4 2 15 8 E 0,0
17.04.2019 14:00:00 15,7 5,0 4 2 18 10 SSE -
17.04.2019 13:00:00 14,9 7,4 4 2 13 7 W 0,0
17.04.2019 12:00:00 14,8 7,3 4 2 15 8 ESE 0,0
17.04.2019 11:00:00 14,1 7,6 4 2 15 8 ESE 0,0
17.04.2019 10:00:00 11,5 7,6 4 2 13 7 SE 0,0
17.04.2019 09:00:00 10,2 8,1 4 2 9 5 ESE 0,0
17.04.2019 08:00:00 7,3 6,7 2 1 5 3 SE -
17.04.2019 07:00:00 6,2 5,9 4 2 15 8 S 0,0
17.04.2019 06:00:00 5,8 5,5 8 4 13 7 SE 0,0
17.04.2019 05:00:00 6,7 6,4 4 2 9 5 SSE 0,0
17.04.2019 04:00:00 6,8 6,7 4 2 9 5 SE 0,0
17.04.2019 03:00:00 7,0 6,9 2 1 9 5 ESE 0,0
17.04.2019 02:00:00 7,2 6,9 0 0 8 4 N -
17.04.2019 01:00:00 7,7 7,6 0 0 8 4 N 0,0
17.04.2019 00:00:00 7,9 7,8 0 0 8 4 N 0,0
16.04.2019 23:00:00 7,1 6,7 4 2 8 4 W 0,0
16.04.2019 22:00:00 8,2 7,4 2 1 11 6 W 0,0
16.04.2019 21:00:00 8,8 8,3 0 0 9 5 N 0,0
16.04.2019 20:00:00 9,4 8,3 4 2 15 8 W -
16.04.2019 19:00:00 10,2 9,0 4 2 21 11 NW 0,0
16.04.2019 18:00:00 11,1 10,2 4 2 28 15 WNW 0,0
16.04.2019 17:00:00 9,8 9,0 8 4 34 18 WNW 3,0
16.04.2019 16:00:00 9,6 9,5 4 2 26 14 WNW 0,0
16.04.2019 15:00:00 9,6 9,3 4 2 29 16 W 0,0
16.04.2019 14:00:00 8,8 8,7 11 6 34 18 SW -
16.04.2019 13:00:00 7,9 7,5 13 7 34 18 SSW 0,8
16.04.2019 12:00:00 7,6 7,3 13 7 42 23 SSW 0,8
16.04.2019 11:00:00 7,6 6,8 9 5 34 18 S 0,4
16.04.2019 10:00:00 7,6 7,0 9 5 26 14 SSE 0,4
16.04.2019 09:00:00 6,6 5,9 8 4 35 19 S 0,8
16.04.2019 08:00:00 6,0 5,4 13 7 35 19 SSW -
16.04.2019 07:00:00 6,0 5,4 13 7 34 18 SW 1,0
16.04.2019 06:00:00 6,9 4,9 11 6 28 15 SSW 1,0
16.04.2019 05:00:00 7,1 4,7 5 3 29 16 WSW 0,8
16.04.2019 04:00:00 9,2 1,8 8 4 31 17 WSW 0,0
16.04.2019 03:00:00 9,0 1,6 9 5 31 17 WSW 0,0
16.04.2019 02:00:00 10,3 0,6 9 5 48 26 W -
16.04.2019 01:00:00 10,6 -0,3 9 5 31 17 S 0,0
16.04.2019 00:00:00 9,0 1,2 8 4 22 12 ESE 0,0
15.04.2019 23:00:00 9,2 1,4 8 4 34 18 E 0,0
15.04.2019 22:00:00 9,5 1,1 8 4 29 16 E 0,0
15.04.2019 21:00:00 10,3 0,9 9 5 31 17 E 0,0
15.04.2019 20:00:00 10,6 0,9 8 4 35 19 E -
15.04.2019 19:00:00 11,4 0,8 8 4 34 18 ESE 0,0
15.04.2019 18:00:00 13,0 0,4 5 3 31 17 E 0,0
15.04.2019 17:00:00 13,7 -1,1 8 4 24 13 E 0,0
15.04.2019 16:00:00 14,1 -1,2 5 3 22 12 E 0,0
15.04.2019 15:00:00 14,1 1,4 8 4 18 10 E 0,0
15.04.2019 14:00:00 13,4 1,4 5 3 22 12 E -
15.04.2019 13:00:00 12,1 -0,1 5 3 29 16 E 0,0
15.04.2019 12:00:00 10,2 0,8 5 3 31 17 E 0,0
15.04.2019 11:00:00 9,2 1,4 5 3 24 13 E 0,0
15.04.2019 10:00:00 7,0 -0,2 8 4 26 14 E 0,0
15.04.2019 09:00:00 4,9 -0,3 11 6 37 20 E 0,0
15.04.2019 08:00:00 2,3 -1,0 8 4 39 21 E -
15.04.2019 07:00:00 1,3 -1,4 4 2 37 20 ENE 0,0
15.04.2019 06:00:00 1,4 -1,3 4 2 35 19 ENE 0,0
15.04.2019 05:00:00 1,5 -1,2 5 3 39 21 E 0,0
15.04.2019 04:00:00 2,1 -1,2 8 4 31 17 E 0,0
15.04.2019 03:00:00 0,3 -1,8 5 3 22 12 E 0,0
15.04.2019 02:00:00 0,0 -2,4 4 2 13 7 E -
15.04.2019 01:00:00 0,5 -3,4 4 2 8 4 E 0,0
15.04.2019 00:00:00 0,8 -4,6 0 0 11 6 N 0,0
14.04.2019 23:00:00 1,1 -5,8 0 0 9 5 N 0,0
14.04.2019 22:00:00 2,0 -6,6 0 0 5 3 N 0,0
14.04.2019 21:00:00 2,4 -6,7 4 2 15 8 E 0,0
14.04.2019 20:00:00 4,4 -6,5 4 2 29 16 E -
14.04.2019 19:00:00 7,2 -6,9 5 3 22 12 ENE 0,0
14.04.2019 18:00:00 7,8 -6,7 4 2 24 13 E 0,0
14.04.2019 17:00:00 8,2 -6,4 8 4 26 14 ENE 0,0
14.04.2019 16:00:00 8,6 -5,7 8 4 29 16 ENE 0,0
14.04.2019 15:00:00 8,1 -6,1 8 4 24 13 E 0,0
14.04.2019 14:00:00 7,4 -6,7 8 4 22 12 E -
14.04.2019 13:00:00 6,1 -6,2 8 4 29 16 NE 0,0
14.04.2019 12:00:00 6,5 -5,2 8 4 26 14 ENE 0,0
14.04.2019 11:00:00 5,2 -4,4 5 3 21 11 ENE 0,0
14.04.2019 10:00:00 4,1 -4,6 4 2 16 9 E 0,0
14.04.2019 09:00:00 1,3 -3,8 5 3 24 13 ENE 0,0
14.04.2019 08:00:00 -0,9 -4,8 8 4 18 10 E -
14.04.2019 07:00:00 -2,7 -4,9 5 3 21 11 E 0,0
14.04.2019 06:00:00 -2,8 -5,6 5 3 15 8 E 0,0
14.04.2019 05:00:00 -1,9 -5,7 8 4 22 12 E 0,0
14.04.2019 04:00:00 -2,5 -5,8 4 2 16 9 E 0,0
14.04.2019 03:00:00 -1,9 -5,9 5 3 16 9 ENE 0,0
14.04.2019 02:00:00 -1,5 -6,1 4 2 18 10 ENE -
14.04.2019 01:00:00 -0,8 -6,2 5 3 26 14 ENE 0,0
14.04.2019 00:00:00 -0,9 -6,7 4 2 24 13 E 0,0
13.04.2019 23:00:00 0,1 -7,4 8 4 22 12 ENE 0,0
13.04.2019 22:00:00 0,9 -7,1 5 3 31 17 ENE 0,0
13.04.2019 21:00:00 2,0 -6,8 8 4 31 17 NE 0,0
13.04.2019 20:00:00 3,6 -6,1 8 4 35 19 NNE -
13.04.2019 19:00:00 5,6 -5,1 9 5 31 17 NNE 0,0
13.04.2019 18:00:00 6,8 -5,2 11 6 28 15 NNW 0,0
13.04.2019 17:00:00 7,8 -5,0 8 4 26 14 NNW 0,0
13.04.2019 16:00:00 8,5 -4,0 9 5 22 12 NW 0,0
13.04.2019 15:00:00 7,7 -4,4 8 4 24 13 NNW 0,0
13.04.2019 14:00:00 6,9 -4,2 8 4 24 13 N -
13.04.2019 13:00:00 6,8 -3,7 4 2 24 13 NNW 0,0
13.04.2019 12:00:00 5,6 -4,3 8 4 24 13 NNW 0,0
13.04.2019 11:00:00 5,3 -4,8 8 4 28 15 NNE 0,0
13.04.2019 10:00:00 3,8 -3,5 5 3 18 10 NNE 0,0
13.04.2019 09:00:00 2,3 -3,2 8 4 16 9 ENE 0,0
13.04.2019 08:00:00 1,1 -3,2 5 3 13 7 ENE -
13.04.2019 07:00:00 -0,2 -3,7 5 3 13 7 E 0,0
13.04.2019 06:00:00 0,3 -3,6 5 3 11 6 E 0,0
13.04.2019 05:00:00 -0,2 -3,7 5 3 13 7 E 0,0
13.04.2019 04:00:00 0,4 -4,1 5 3 21 11 E 0,0
13.04.2019 03:00:00 0,6 -4,1 8 4 22 12 E 0,0
13.04.2019 02:00:00 1,2 -3,7 8 4 16 9 E -

tt = Température de l'air
td = dewpoint
ff = Vitesse du vent
fx = gusts
dd = Direction du vent
rr = Quantités de précipitations

stations d'obs. à proximité